Time;durP1;ratioP1;P1;durP2;ratioP2;P2;SDS_P1;SDS_P2;PMS_P1;PMS_P2;Temp;Humidity;BMP_temperature;BMP_pressure;BME280_temperature;BME280_humidity;BME280_pressure;Samples;Min_cycle;Max_cycle;Signal;HPM_P1;HPM_P2
2023/08/29 00:00:02;;;;;;;9.38;7.47;;;;;;;10.82;100.00;101040.72;5071902;28;20028;-80
2023/08/29 00:02:31;;;;;;;8.25;7.45;;;;;;;10.83;100.00;101041.56;5065533;28;20024;-79
2023/08/29 00:04:58;;;;;;;10.23;7.13;;;;;;;10.76;100.00;101031.56;5064594;28;20108;-80
2023/08/29 00:07:24;;;;;;;8.65;7.32;;;;;;;10.71;100.00;101044.78;5062094;28;20036;-80
2023/08/29 00:09:49;;;;;;;8.25;7.32;;;;;;;10.68;100.00;101038.94;5066610;28;20048;-80
2023/08/29 00:12:14;;;;;;;7.93;7.13;;;;;;;10.63;100.00;101027.91;5069227;28;20676;-80
2023/08/29 00:14:40;;;;;;;8.05;6.88;;;;;;;10.56;100.00;101030.56;5068793;28;20046;-80
2023/08/29 00:17:06;;;;;;;9.77;7.60;;;;;;;10.52;100.00;101023.88;5069450;28;20024;-80
2023/08/29 00:19:32;;;;;;;8.05;7.25;;;;;;;10.52;100.00;101018.50;5068987;28;20024;-80
2023/08/29 00:21:58;;;;;;;10.55;8.40;;;;;;;10.51;100.00;101022.22;5061915;28;20061;-80
2023/08/29 00:24:24;;;;;;;10.90;8.27;;;;;;;10.48;100.00;101018.06;5070375;28;20463;-80
2023/08/29 00:26:50;;;;;;;10.02;8.45;;;;;;;10.46;100.00;101020.94;5061345;28;20048;-80
2023/08/29 00:29:16;;;;;;;8.45;7.03;;;;;;;10.42;100.00;101022.31;5063553;28;20123;-80
2023/08/29 00:31:41;;;;;;;9.00;7.35;;;;;;;10.38;100.00;101017.50;5062639;28;20768;-80
2023/08/29 00:34:09;;;;;;;8.23;7.32;;;;;;;10.34;100.00;101017.06;5070817;28;20082;-80
2023/08/29 00:36:35;;;;;;;9.75;7.65;;;;;;;10.31;100.00;101022.81;5068268;28;20039;-80
2023/08/29 00:39:00;;;;;;;8.43;7.53;;;;;;;10.29;100.00;101024.84;5068996;28;20024;-80
2023/08/29 00:41:25;;;;;;;8.82;7.70;;;;;;;10.28;100.00;101017.81;5066976;28;20045;-80
2023/08/29 00:43:51;;;;;;;10.27;8.30;;;;;;;10.28;100.00;101017.81;5072229;28;20039;-80
2023/08/29 00:46:16;;;;;;;9.50;7.93;;;;;;;10.24;100.00;101016.50;5064494;28;20029;-80
2023/08/29 00:48:42;;;;;;;8.48;7.18;;;;;;;10.20;100.00;101010.69;5066517;28;20090;-80
2023/08/29 00:51:08;;;;;;;8.13;7.25;;;;;;;10.18;100.00;101003.84;5069608;28;20028;-80
2023/08/29 00:53:33;;;;;;;10.82;9.32;;;;;;;10.18;100.00;101001.16;5057568;28;20099;-79
2023/08/29 00:55:58;;;;;;;12.05;9.98;;;;;;;10.27;100.00;100994.63;5060835;28;20029;-80
2023/08/29 00:58:24;;;;;;;14.38;10.50;;;;;;;10.33;100.00;100999.25;5069173;28;20487;-80
2023/08/29 01:00:50;;;;;;;11.05;9.38;;;;;;;10.32;100.00;101002.94;5054677;28;20480;-80
2023/08/29 01:03:15;;;;;;;12.70;10.45;;;;;;;10.34;100.00;101000.06;5064576;28;20032;-80
2023/08/29 01:05:43;;;;;;;13.38;10.48;;;;;;;10.32;100.00;101002.94;5072451;28;20028;-80
2023/08/29 01:08:09;;;;;;;11.50;9.85;;;;;;;10.32;100.00;100998.38;5068035;28;20032;-80
2023/08/29 01:10:36;;;;;;;13.73;10.05;;;;;;;10.33;100.00;101007.31;5058851;28;20028;-80
2023/08/29 01:13:20;;;;;;;11.30;9.50;;;;;;;10.34;100.00;101008.13;5060345;28;20423;-80
2023/08/29 01:15:48;;;;;;;12.38;9.75;;;;;;;10.31;100.00;101010.22;5054418;28;20122;-80
2023/08/29 01:18:14;;;;;;;12.77;9.82;;;;;;;10.27;100.00;101010.75;5063928;28;20060;-80
2023/08/29 01:20:39;;;;;;;12.02;9.25;;;;;;;10.22;100.00;101022.09;5034747;28;20373;-80
2023/08/29 01:23:16;;;;;;;11.20;9.00;;;;;;;10.17;100.00;101019.13;5067254;28;20025;-80
2023/08/29 01:26:13;;;;;;;11.82;9.18;;;;;;;10.11;100.00;101020.72;5063898;28;20066;-80
2023/08/29 01:28:40;;;;;;;10.20;7.88;;;;;;;10.10;100.00;101013.69;5041428;28;20021;-80
2023/08/29 01:31:05;;;;;;;11.20;8.52;;;;;;;10.08;100.00;101018.41;5054706;28;20043;-80
2023/08/29 01:33:34;;;;;;;11.85;8.65;;;;;;;10.07;100.00;101027.50;5063035;28;20021;-80
2023/08/29 01:35:59;;;;;;;11.98;9.32;;;;;;;10.07;100.00;101026.69;5059437;28;20082;-80
2023/08/29 01:38:25;;;;;;;8.88;7.82;;;;;;;10.04;100.00;101021.69;5059659;28;20036;-80
2023/08/29 01:40:50;;;;;;;12.13;9.27;;;;;;;10.02;100.00;101036.16;5063957;28;20028;-80
2023/08/29 01:43:15;;;;;;;11.82;8.48;;;;;;;10.01;100.00;101028.28;5065858;28;20025;-80
2023/08/29 01:45:41;;;;;;;11.75;9.07;;;;;;;10.01;100.00;101034.47;5063882;28;20554;-80
2023/08/29 01:48:10;;;;;;;13.57;9.70;;;;;;;10.05;100.00;101031.41;5065598;28;20318;-80
2023/08/29 01:50:36;;;;;;;15.43;10.53;;;;;;;10.10;100.00;101026.31;5061362;28;20107;-80
2023/08/29 01:53:04;;;;;;;14.50;10.30;;;;;;;10.12;100.00;101019.72;5060978;28;20454;-80
2023/08/29 01:55:30;;;;;;;11.93;9.02;;;;;;;10.06;100.00;101033.09;5053128;28;20113;-80
2023/08/29 01:58:02;;;;;;;10.20;8.43;;;;;;;10.04;100.00;101033.28;5071744;28;20415;-80
2023/08/29 02:00:27;;;;;;;14.45;9.63;;;;;;;10.03;100.00;101045.06;5061601;28;20025;-80
2023/08/29 02:02:53;;;;;;;12.35;8.77;;;;;;;9.98;100.00;101042.09;5060566;28;20487;-80
2023/08/29 02:05:20;;;;;;;10.73;8.50;;;;;;;9.96;100.00;101038.75;5070739;28;20025;-80
2023/08/29 02:07:45;;;;;;;11.77;9.35;;;;;;;9.92;100.00;101045.53;5062694;28;20132;-80
2023/08/29 02:10:11;;;;;;;11.65;8.85;;;;;;;9.89;100.00;101045.91;5069543;28;20028;-80
2023/08/29 02:12:36;;;;;;;10.57;8.90;;;;;;;9.94;100.00;101048.88;5075143;28;20498;-80
2023/08/29 02:15:02;;;;;;;10.85;8.60;;;;;;;9.96;100.00;101053.06;5072854;28;20092;-81
2023/08/29 02:17:30;;;;;;;10.85;8.40;;;;;;;9.97;100.00;101061.94;5066954;28;20056;-80
2023/08/29 02:19:56;;;;;;;9.35;7.93;;;;;;;9.93;100.00;101058.81;5077094;28;20072;-80
2023/08/29 02:22:21;;;;;;;12.05;9.05;;;;;;;9.92;100.00;101053.59;5068957;28;20381;-80
2023/08/29 02:24:47;;;;;;;10.88;8.65;;;;;;;9.91;100.00;101065.38;5065653;28;20473;-80
2023/08/29 02:27:13;;;;;;;14.95;10.50;;;;;;;9.93;100.00;101063.34;5069361;28;20031;-80
2023/08/29 02:29:39;;;;;;;15.55;10.32;;;;;;;9.94;100.00;101063.16;5064334;28;20074;-80
2023/08/29 02:32:04;;;;;;;17.50;9.52;;;;;;;9.92;100.00;101067.91;5068260;28;20447;-80
2023/08/29 02:34:29;;;;;;;11.70;8.90;;;;;;;9.92;100.00;101067.03;5069023;28;20024;-81
2023/08/29 02:36:55;;;;;;;12.07;9.05;;;;;;;9.89;100.00;101068.28;5078260;28;20036;-81
2023/08/29 02:39:20;;;;;;;12.18;9.77;;;;;;;9.88;100.00;101065.78;5071405;28;20024;-80
2023/08/29 02:41:46;;;;;;;13.25;8.88;;;;;;;9.86;100.00;101072.19;5072186;28;20033;-80
2023/08/29 02:44:11;;;;;;;11.77;9.20;;;;;;;9.86;100.00;101077.56;5060815;28;20029;-81
2023/08/29 02:46:37;;;;;;;13.88;9.05;;;;;;;9.86;100.00;101085.63;5063765;28;20036;-80
2023/08/29 02:49:02;;;;;;;11.82;9.15;;;;;;;9.89;100.00;101086.25;5066026;28;20074;-80
2023/08/29 02:51:28;;;;;;;13.52;10.60;;;;;;;9.96;100.00;101089.88;5077841;28;20027;-81
2023/08/29 02:53:53;;;;;;;16.83;10.60;;;;;;;10.03;100.00;101085.41;5066079;28;20028;-81
2023/08/29 02:56:19;;;;;;;16.15;10.18;;;;;;;10.03;100.00;101090.78;5077663;28;20123;-80
2023/08/29 02:58:45;;;;;;;14.45;9.93;;;;;;;10.03;100.00;101090.78;5075557;28;20083;-81
2023/08/29 03:01:11;;;;;;;12.30;9.50;;;;;;;10.01;100.00;101090.97;5072943;28;20039;-81
2023/08/29 03:03:39;;;;;;;12.63;9.85;;;;;;;10.04;100.00;101091.63;5073441;28;20024;-80
2023/08/29 03:06:08;;;;;;;11.90;9.35;;;;;;;10.02;100.00;101099.88;5070534;28;20060;-81
2023/08/29 03:08:33;;;;;;;15.07;9.75;;;;;;;10.05;100.00;101098.66;5067808;28;20474;-80
2023/08/29 03:11:01;;;;;;;13.73;10.02;;;;;;;10.01;100.00;101092.84;5067569;28;20016;-81
2023/08/29 03:13:27;;;;;;;11.45;8.93;;;;;;;9.98;100.00;101088.66;5068696;28;20150;-80
2023/08/29 03:15:52;;;;;;;11.18;8.85;;;;;;;9.94;100.00;101087.38;5073257;28;20453;-80
2023/08/29 03:18:18;;;;;;;11.13;9.18;;;;;;;9.93;100.00;101076.78;5075477;28;20041;-80
2023/08/29 03:20:45;;;;;;;12.30;9.18;;;;;;;9.91;100.00;101076.13;5063075;28;20085;-80
2023/08/29 03:23:11;;;;;;;16.65;10.73;;;;;;;9.93;100.00;101074.09;5069392;28;20051;-80
2023/08/29 03:25:36;;;;;;;12.23;9.43;;;;;;;9.93;100.00;101066.03;5067988;28;20492;-80
2023/08/29 03:28:04;;;;;;;12.40;10.02;;;;;;;9.94;100.00;101062.31;5060761;28;20036;-81
2023/08/29 03:30:30;;;;;;;13.77;9.63;;;;;;;9.94;100.00;101062.31;5075375;28;20075;-80
2023/08/29 03:32:55;;;;;;;14.43;10.00;;;;;;;9.95;100.00;101050.53;5070415;28;20039;-80
2023/08/29 03:35:21;;;;;;;14.18;11.00;;;;;;;9.95;100.00;101055.91;5074396;28;20206;-80
2023/08/29 03:37:46;;;;;;;14.40;9.93;;;;;;;9.94;100.00;101055.09;5079013;28;20046;-81
2023/08/29 03:40:12;;;;;;;16.50;11.13;;;;;;;9.94;100.00;101044.34;5089510;28;20012;-80
2023/08/29 03:42:38;;;;;;;14.55;10.27;;;;;;;9.92;100.00;101040.16;5072458;28;20055;-80
2023/08/29 03:45:04;;;;;;;15.65;10.23;;;;;;;9.93;100.00;101036.44;5072488;28;20023;-80
2023/08/29 03:47:31;;;;;;;15.00;10.10;;;;;;;9.97;100.00;101032.38;5069195;28;20038;-80
2023/08/29 03:49:57;;;;;;;15.63;10.93;;;;;;;9.96;100.00;101033.38;5062210;28;20468;-80
2023/08/29 03:52:23;;;;;;;14.80;10.00;;;;;;;9.95;100.00;101023.66;5072714;28;20033;-80
2023/08/29 03:54:48;;;;;;;14.45;9.55;;;;;;;9.93;100.00;101021.16;5068470;28;20024;-80
2023/08/29 03:57:13;;;;;;;10.98;9.20;;;;;;;9.89;100.00;101016.31;5076152;28;20453;-80
2023/08/29 03:59:39;;;;;;;13.02;9.68;;;;;;;9.87;100.00;101011.16;5063654;28;20031;-80
2023/08/29 04:02:06;;;;;;;13.05;9.05;;;;;;;9.86;100.00;101010.34;5070752;28;20043;-81
2023/08/29 04:04:32;;;;;;;11.82;9.43;;;;;;;9.89;100.00;101008.25;5057258;28;20028;-80
2023/08/29 04:07:04;;;;;;;12.25;9.38;;;;;;;9.88;100.00;101010.13;5062834;28;20040;-83
2023/08/29 04:09:30;;;;;;;14.50;10.07;;;;;;;9.88;100.00;101006.63;5068489;28;20059;-83
2023/08/29 04:11:56;;;;;;;15.30;10.43;;;;;;;9.91;100.00;101014.28;5062851;28;20056;-82
2023/08/29 04:14:21;;;;;;;15.57;10.25;;;;;;;9.88;100.00;101004.75;5068032;28;20028;-88
2023/08/29 04:16:47;;;;;;;16.40;11.25;;;;;;;9.91;100.00;101006.22;5066644;28;20024;-77
2023/08/29 04:19:14;;;;;;;14.23;9.70;;;;;;;9.88;100.00;100999.38;5062247;28;20036;-79
2023/08/29 04:21:40;;;;;;;12.20;9.10;;;;;;;9.88;100.00;100995.88;5073700;28;20029;-78
2023/08/29 04:24:06;;;;;;;14.95;10.07;;;;;;;9.86;100.00;100999.56;5079523;28;20147;-77
2023/08/29 04:26:31;;;;;;;16.17;10.20;;;;;;;9.88;100.00;100990.50;5063857;28;20056;-77
2023/08/29 04:28:57;;;;;;;13.75;9.90;;;;;;;9.90;100.00;100988.41;5069281;28;20035;-78
2023/08/29 04:31:22;;;;;;;13.30;9.50;;;;;;;9.89;100.00;100992.13;5059840;28;20039;-78
2023/08/29 04:33:48;;;;;;;19.40;10.30;;;;;;;9.89;100.00;100986.75;5060920;28;20028;-78
2023/08/29 04:36:19;;;;;;;11.75;8.48;;;;;;;9.88;100.00;100985.09;5069171;28;20016;-78
2023/08/29 04:38:47;;;;;;;14.32;9.07;;;;;;;9.89;100.00;100986.75;5068126;28;20449;-78
2023/08/29 04:41:12;;;;;;;13.70;9.27;;;;;;;9.94;100.00;100989.72;5071204;28;20032;-78
2023/08/29 04:43:40;;;;;;;15.38;9.93;;;;;;;9.95;100.00;100997.59;5062984;28;20366;-78
2023/08/29 04:46:09;;;;;;;16.88;9.45;;;;;;;9.95;100.00;100991.38;5068583;28;20135;-78
2023/08/29 04:48:35;;;;;;;17.38;10.00;;;;;;;9.94;100.00;100998.63;5071038;28;20021;-78
2023/08/29 04:51:01;;;;;;;17.83;10.73;;;;;;;9.97;100.00;100994.72;5062319;28;20377;-77
2023/08/29 04:53:27;;;;;;;15.75;10.85;;;;;;;10.01;100.00;101001.38;5065449;28;20057;-77
2023/08/29 04:56:00;;;;;;;14.00;9.35;;;;;;;10.04;100.00;101005.53;5064139;28;20421;-78
2023/08/29 04:58:25;;;;;;;16.42;11.27;;;;;;;10.06;100.00;101004.31;5065021;28;20033;-78
2023/08/29 05:00:51;;;;;;;14.52;10.18;;;;;;;10.07;100.00;101000.59;5067745;28;20023;-78
2023/08/29 05:03:17;;;;;;;14.13;10.05;;;;;;;10.13;100.00;101004.44;5067401;28;20547;-77
2023/08/29 05:05:45;;;;;;;16.67;10.73;;;;;;;10.14;100.00;101006.91;5062874;28;20032;-78
2023/08/29 05:08:11;;;;;;;16.02;10.27;;;;;;;10.18;100.00;101014.59;5063242;28;20162;-78
2023/08/29 05:10:36;;;;;;;14.32;10.02;;;;;;;10.22;100.00;101019.41;5068493;28;20112;-77
2023/08/29 05:13:02;;;;;;;18.45;11.40;;;;;;;10.28;100.00;101020.50;5067772;28;20445;-77
2023/08/29 05:15:27;;;;;;;16.73;10.57;;;;;;;10.35;100.00;101004.41;5056740;28;20039;-79
2023/08/29 05:17:55;;;;;;;15.55;10.57;;;;;;;10.44;100.00;101006.00;5064577;28;20061;-77
2023/08/29 05:20:21;;;;;;;15.35;10.43;;;;;;;10.52;100.00;101013.94;5061040;28;20033;-77
2023/08/29 05:22:46;;;;;;;14.35;9.93;;;;;;;10.60;100.00;101004.88;5061254;28;20499;-78
2023/08/29 05:25:12;;;;;;;13.60;9.90;;;;;;;10.69;100.00;100998.34;5057379;28;20022;-78
2023/08/29 05:27:37;;;;;;;13.90;9.80;;;;;;;10.75;100.00;100997.59;5063225;28;20028;-77
2023/08/29 05:30:04;;;;;;;13.00;9.85;;;;;;;10.85;100.00;100999.94;5069020;28;20039;-78
2023/08/29 05:32:30;;;;;;;14.63;9.77;;;;;;;10.89;100.00;100997.69;5066235;28;20036;-77
2023/08/29 05:34:55;;;;;;;11.80;9.95;;;;;;;10.92;100.00;100994.63;5069386;28;20021;-78
2023/08/29 05:37:21;;;;;;;12.18;8.70;;;;;;;11.00;100.00;101002.53;5068124;28;20041;-78
2023/08/29 05:39:46;;;;;;;11.07;8.60;;;;;;;11.03;100.00;100999.44;5064948;28;20039;-78
2023/08/29 05:42:11;;;;;;;11.13;8.50;;;;;;;11.18;100.00;100995.81;5067534;28;20411;-78
2023/08/29 05:44:38;;;;;;;10.23;8.80;;;;;;;11.20;100.00;101004.53;5062626;28;20036;-78
2023/08/29 05:47:03;;;;;;;8.93;8.02;;;;;;;11.28;100.00;100996.31;5061803;28;20031;-78
2023/08/29 05:49:30;;;;;;;9.15;8.20;;;;;;;11.35;100.00;101001.72;5073179;22;20060;-77
2023/08/29 05:51:55;;;;;;;11.20;8.75;;;;;;;11.42;100.00;100999.06;5038164;28;20045;-77
2023/08/29 05:54:20;;;;;;;11.52;9.20;;;;;;;11.50;100.00;100991.66;5048037;28;20443;-78
2023/08/29 05:56:49;;;;;;;9.13;8.23;;;;;;;11.61;100.00;101001.03;5048034;28;20029;-78
2023/08/29 05:59:17;;;;;;;10.10;7.95;;;;;;;11.63;100.00;100992.75;5045316;28;20036;-77
2023/08/29 06:01:42;;;;;;;8.75;7.47;;;;;;;11.61;100.00;100992.94;5035197;28;20397;-77
2023/08/29 06:04:08;;;;;;;8.65;7.72;;;;;;;11.60;100.00;100993.97;5050511;28;20026;-79
2023/08/29 06:06:33;;;;;;;9.23;7.68;;;;;;;11.62;100.00;100997.31;5049302;28;20032;-77
2023/08/29 06:08:59;;;;;;;8.82;7.70;;;;;;;11.72;100.00;101001.50;5048475;28;20121;-77
2023/08/29 06:11:26;;;;;;;8.27;7.40;;;;;;;11.75;100.00;101001.09;5045246;28;20420;-77
2023/08/29 06:13:51;;;;;;;8.73;7.28;;;;;;;11.87;100.00;101009.44;5041246;28;20024;-78
2023/08/29 06:16:17;;;;;;;7.85;7.15;;;;;;;11.96;100.00;101008.22;5045999;28;20096;-78
2023/08/29 06:18:43;;;;;;;7.50;6.70;;;;;;;12.03;100.00;101008.28;5045215;28;20064;-80
2023/08/29 06:21:08;;;;;;;8.77;6.63;;;;;;;11.98;100.00;101016.94;5048751;28;20470;-77
2023/08/29 06:23:34;;;;;;;9.93;6.90;;;;;;;12.05;100.00;101014.28;5048036;28;20071;-77
2023/08/29 06:25:59;;;;;;;7.40;6.70;;;;;;;12.19;100.00;101016.00;5047866;28;20021;-77
2023/08/29 06:28:25;;;;;;;7.65;6.47;;;;;;;12.32;100.00;101017.91;5045691;28;20029;-78
2023/08/29 06:30:50;;;;;;;7.05;6.35;;;;;;;12.39;100.00;101017.91;5044612;28;20485;-78
2023/08/29 06:33:16;;;;;;;7.30;6.10;;;;;;;12.45;100.00;101019.81;5049329;28;20473;-77
2023/08/29 06:35:41;;;;;;;7.18;6.45;;;;;;;12.54;100.00;101020.44;5050914;28;20029;-77
2023/08/29 06:38:07;;;;;;;6.22;5.68;;;;;;;12.63;100.00;101012.97;5048281;28;20349;-77
2023/08/29 06:40:32;;;;;;;7.28;6.53;;;;;;;12.68;100.00;101016.69;5051642;28;20083;-78
2023/08/29 06:42:58;;;;;;;8.10;6.43;;;;;;;12.82;100.00;101017.53;5052812;28;20488;-77
2023/08/29 06:45:23;;;;;;;7.18;6.47;;;;;;;12.85;100.00;101014.44;5066902;28;20396;-78
2023/08/29 06:47:49;;;;;;;6.88;6.07;;;;;;;12.91;100.00;101020.88;5062206;28;20025;-78
2023/08/29 06:50:16;;;;;;;6.65;6.05;;;;;;;13.03;100.00;101019.19;5055054;28;20040;-78
2023/08/29 06:52:41;;;;;;;8.48;6.82;;;;;;;13.01;100.00;101015.88;5049365;28;20033;-78
2023/08/29 06:55:09;;;;;;;7.70;6.28;;;;;;;13.11;100.00;101022.72;5051158;28;20029;-77
2023/08/29 06:57:36;;;;;;;6.47;5.85;;;;;;;13.35;100.00;101023.94;5045973;28;20045;-78
2023/08/29 07:00:03;;;;;;;7.00;6.30;;;;;;;13.39;100.00;101030.59;5046289;28;20107;-78
2023/08/29 07:02:29;;;;;;;7.50;6.80;;;;;;;13.54;100.00;101030.34;5044667;28;20127;-77
2023/08/29 07:04:55;;;;;;;7.18;6.47;;;;;;;13.85;100.00;101019.84;5046061;28;20037;-76
2023/08/29 07:07:20;;;;;;;8.15;6.50;;;;;;;14.13;100.00;101024.09;5043192;28;20037;-77
2023/08/29 07:09:45;;;;;;;7.00;6.03;;;;;;;14.43;100.00;101015.38;5055816;28;20365;-76
2023/08/29 07:12:11;;;;;;;7.13;6.45;;;;;;;14.69;100.00;101022.53;5044102;28;20037;-76
2023/08/29 07:14:36;;;;;;;7.03;6.18;;;;;;;14.89;98.73;101018.81;5054149;28;20029;-76
2023/08/29 07:17:04;;;;;;;6.70;5.80;;;;;;;15.10;94.51;101017.59;5046998;28;20025;-76
2023/08/29 07:19:30;;;;;;;6.60;6.00;;;;;;;15.40;95.46;101014.16;5053683;28;20523;-76
2023/08/29 07:21:56;;;;;;;6.30;5.70;;;;;;;15.86;91.63;101018.25;5051262;28;20109;-76
2023/08/29 07:24:21;;;;;;;7.00;6.30;;;;;;;15.95;92.09;101001.63;5048189;28;20088;-77
2023/08/29 07:26:47;;;;;;;7.13;5.45;;;;;;;16.53;90.33;101013.75;5049620;28;20071;-76
2023/08/29 07:29:12;;;;;;;6.28;5.10;;;;;;;17.00;85.06;101017.63;5048574;28;20033;-76
2023/08/29 07:31:38;;;;;;;5.82;5.22;;;;;;;17.36;85.62;101018.44;5049618;28;20512;-77
2023/08/29 07:34:03;;;;;;;5.22;4.75;;;;;;;17.96;83.68;101017.25;5054880;28;20029;-76
2023/08/29 07:36:28;;;;;;;5.30;4.72;;;;;;;18.88;78.79;101017.25;5052679;28;20491;-76
2023/08/29 07:38:54;;;;;;;5.78;4.63;;;;;;;19.70;76.26;101022.22;5054476;28;20017;-76
2023/08/29 07:41:19;;;;;;;5.80;4.40;;;;;;;19.64;73.15;101024.06;5054157;28;20819;-77
2023/08/29 07:43:44;;;;;;;6.80;5.10;;;;;;;19.61;73.74;101018.25;5050353;28;20947;-76
2023/08/29 07:46:10;;;;;;;5.60;5.10;;;;;;;19.73;74.17;101018.13;5055050;28;20025;-76
2023/08/29 07:48:35;;;;;;;5.32;4.65;;;;;;;20.28;71.57;101021.81;5051785;28;20099;-77
2023/08/29 07:51:01;;;;;;;5.03;4.53;;;;;;;20.75;68.63;101026.63;5067219;28;20078;-76
2023/08/29 07:53:27;;;;;;;5.10;4.03;;;;;;;21.07;68.46;101029.56;5070427;28;20051;-76
2023/08/29 07:55:52;;;;;;;6.05;3.92;;;;;;;22.26;64.32;101028.19;5068855;28;20679;-77
2023/08/29 07:58:18;;;;;;;6.78;3.42;;;;;;;23.07;58.83;101027.66;5069813;28;20040;-77
2023/08/29 08:00:43;;;;;;;3.50;3.03;;;;;;;23.61;60.14;101026.19;5068050;28;20036;-76
2023/08/29 08:03:08;;;;;;;5.55;3.35;;;;;;;23.90;55.12;101026.34;5070319;28;20027;-77
2023/08/29 08:05:34;;;;;;;4.40;3.10;;;;;;;23.96;54.40;101024.38;5071209;28;20032;-77
2023/08/29 08:08:00;;;;;;;3.30;3.00;;;;;;;24.07;56.26;101025.97;5070232;28;20480;-77
2023/08/29 08:10:25;;;;;;;3.67;2.60;;;;;;;25.22;53.15;101026.72;5066176;28;20037;-77
2023/08/29 08:12:51;;;;;;;2.92;2.40;;;;;;;25.19;54.74;101024.53;5061207;28;20033;-77
2023/08/29 08:15:16;;;;;;;5.32;2.72;;;;;;;25.92;52.92;101026.47;5070230;28;20051;-77
2023/08/29 08:17:42;;;;;;;2.72;2.53;;;;;;;26.47;49.86;101032.28;5070800;28;20050;-77
2023/08/29 08:20:08;;;;;;;8.63;2.38;;;;;;;24.64;49.91;101019.25;5070576;28;20029;-77
2023/08/29 08:22:34;;;;;;;3.15;2.50;;;;;;;24.53;52.75;101021.28;5069559;28;20535;-77
2023/08/29 08:25:00;;;;;;;2.75;2.17;;;;;;;26.68;50.22;101023.66;5069248;28;20031;-77
2023/08/29 08:27:25;;;;;;;3.75;2.50;;;;;;;26.95;49.59;101022.13;5070208;28;20439;-77
2023/08/29 08:29:56;;;;;;;2.88;2.30;;;;;;;26.60;46.30;101016.88;5067757;28;20052;-77
2023/08/29 08:32:22;;;;;;;4.35;2.10;;;;;;;26.75;48.35;101021.31;5068282;28;20028;-77
2023/08/29 08:34:47;;;;;;;2.30;2.10;;;;;;;27.02;50.87;101022.53;5064404;28;20508;-77
2023/08/29 08:37:13;;;;;;;2.38;2.17;;;;;;;26.37;48.65;101020.59;5065498;28;20493;-77
2023/08/29 08:39:38;;;;;;;2.33;2.13;;;;;;;24.98;49.01;101018.41;5063248;28;20020;-77
2023/08/29 08:42:03;;;;;;;2.90;2.15;;;;;;;26.06;50.41;101013.56;5070206;28;20028;-77
2023/08/29 08:44:35;;;;;;;3.00;2.25;;;;;;;26.05;48.90;101009.16;5061164;28;20115;-77
2023/08/29 08:47:00;;;;;;;4.10;2.30;;;;;;;25.43;47.14;101012.72;5048880;28;20096;-77
2023/08/29 08:49:28;;;;;;;4.03;2.00;;;;;;;25.72;46.75;101014.59;5064991;28;20063;-77
2023/08/29 08:51:54;;;;;;;3.05;1.80;;;;;;;25.67;48.74;101017.41;5048729;28;20032;-76
2023/08/29 08:54:21;;;;;;;2.92;1.60;;;;;;;25.08;47.98;101023.00;5062586;28;20461;-77
2023/08/29 08:56:47;;;;;;;2.33;2.13;;;;;;;24.84;53.56;101012.78;5048429;28;20104;-77
2023/08/29 08:59:13;;;;;;;4.28;2.13;;;;;;;26.37;47.55;101021.41;5051630;28;20046;-76
2023/08/29 09:01:38;;;;;;;3.25;1.60;;;;;;;27.51;44.95;101022.19;5067845;28;20388;-76
2023/08/29 09:04:04;;;;;;;2.30;1.70;;;;;;;26.60;42.86;101013.31;5069191;28;20017;-76
2023/08/29 09:06:32;;;;;;;2.33;1.80;;;;;;;27.45;44.10;101017.84;5062447;28;20104;-77
2023/08/29 09:09:22;;;;;;;1.70;1.52;;;;;;;26.47;44.25;101028.69;5053429;28;20445;-78
2023/08/29 09:11:52;;;;;;;1.95;1.35;;;;;;;28.40;39.99;101022.69;5071522;28;20028;-76
2023/08/29 09:14:17;;;;;;;2.03;1.40;;;;;;;26.59;41.99;101026.28;5067921;28;20041;-77
2023/08/29 09:16:43;;;;;;;1.50;1.23;;;;;;;27.36;44.31;101032.38;5062471;28;20052;-76
2023/08/29 09:19:08;;;;;;;2.05;1.23;;;;;;;26.91;41.88;101029.38;5051881;28;20044;-74
2023/08/29 09:21:35;;;;;;;3.78;1.30;;;;;;;26.67;40.49;101037.78;5068785;28;20492;-76
2023/08/29 09:24:00;;;;;;;2.90;1.20;;;;;;;25.31;44.04;101031.56;5070657;28;20096;-77
2023/08/29 09:26:32;;;;;;;2.13;1.10;;;;;;;24.99;43.43;101039.31;5070351;28;20111;-76
2023/08/29 09:28:58;;;;;;;2.60;1.30;;;;;;;24.16;44.28;101033.66;5033061;28;20033;-77
2023/08/29 09:31:25;;;;;;;2.03;1.00;;;;;;;24.04;46.67;101023.78;5062902;28;20029;-76
2023/08/29 09:33:50;;;;;;;1.60;1.00;;;;;;;24.66;43.65;101022.53;5054236;28;20032;-76
2023/08/29 09:36:16;;;;;;;1.08;0.80;;;;;;;25.25;42.00;101025.31;5064445;28;20047;-77
2023/08/29 09:38:41;;;;;;;2.30;0.70;;;;;;;26.41;41.32;101027.97;5049437;28;20477;-76
2023/08/29 09:41:13;;;;;;;2.88;1.00;;;;;;;28.25;39.08;101026.63;5024077;28;20082;-76
2023/08/29 09:43:46;;;;;;;1.05;0.70;;;;;;;29.32;34.76;101028.91;5067727;28;20028;-77
2023/08/29 09:46:11;;;;;;;1.15;0.88;;;;;;;28.53;35.42;101023.78;5068807;28;20024;-77
2023/08/29 09:48:38;;;;;;;1.27;1.05;;;;;;;29.08;36.05;101030.16;5068005;28;20036;-76
2023/08/29 09:51:03;;;;;;;1.10;0.80;;;;;;;28.12;33.51;101010.91;5043480;28;20076;-76
2023/08/29 09:53:29;;;;;;;3.88;1.00;;;;;;;27.30;37.66;101017.03;5064179;28;20036;-76
2023/08/29 09:56:08;;;;;;;1.42;1.00;;;;;;;27.50;38.76;101012.25;5072405;28;20039;-76
2023/08/29 09:58:33;;;;;;;1.20;1.00;;;;;;;28.55;36.11;101004.88;5066465;28;20028;-74
2023/08/29 10:00:59;;;;;;;1.38;0.63;;;;;;;28.15;35.62;101004.75;5034536;28;20043;-75
2023/08/29 10:03:25;;;;;;;1.80;0.90;;;;;;;27.55;37.31;101001.06;5050945;28;20021;-75
2023/08/29 10:05:50;;;;;;;2.78;1.00;;;;;;;26.70;39.50;101004.03;5068740;28;20054;-75
2023/08/29 10:08:41;;;;;;;0.95;0.80;;;;;;;26.56;38.86;101015.03;5069074;28;20025;-75
2023/08/29 10:11:06;;;;;;;1.80;1.00;;;;;;;26.71;40.65;101008.44;5069805;28;20439;-75
2023/08/29 10:13:32;;;;;;;1.98;1.00;;;;;;;24.68;43.73;101001.88;5060573;28;20025;-75
2023/08/29 10:15:57;;;;;;;1.73;0.95;;;;;;;24.79;44.10;100999.88;5040062;28;20620;-75
2023/08/29 10:18:23;;;;;;;1.65;1.00;;;;;;;24.81;44.65;100996.84;5073814;28;20082;-74
2023/08/29 10:20:48;;;;;;;1.88;1.00;;;;;;;25.37;45.33;101000.91;5055907;28;20032;-75
2023/08/29 10:23:14;;;;;;;1.52;1.10;;;;;;;26.33;43.36;101007.38;5044934;28;20029;-77
2023/08/29 10:25:39;;;;;;;2.63;1.20;;;;;;;26.95;40.57;100991.72;5049111;28;20070;-75
2023/08/29 10:28:06;;;;;;;1.13;1.05;;;;;;;27.20;40.66;100989.59;5068866;28;20016;-74
2023/08/29 10:30:32;;;;;;;1.15;1.00;;;;;;;27.82;39.89;100993.88;5052198;28;20028;-74
2023/08/29 10:32:57;;;;;;;1.85;1.17;;;;;;;27.53;39.39;100987.56;5037949;28;20028;-74
2023/08/29 10:35:23;;;;;;;1.58;1.13;;;;;;;27.82;38.36;100982.78;5054628;28;20032;-74
2023/08/29 10:37:54;;;;;;;1.92;1.20;;;;;;;26.90;36.72;100986.28;5053360;28;20056;-74
2023/08/29 10:40:20;;;;;;;2.17;1.00;;;;;;;27.02;37.46;100986.59;5036998;28;20081;-75
2023/08/29 10:42:57;;;;;;;3.10;0.90;;;;;;;26.62;41.29;100984.25;5069092;28;20418;-74
2023/08/29 10:45:59;;;;;;;1.45;0.90;;;;;;;27.22;39.36;100981.81;5073204;28;20126;-75
2023/08/29 10:48:30;;;;;;;1.35;0.82;;;;;;;27.02;37.19;100983.03;5030783;28;20096;-74
2023/08/29 10:51:08;;;;;;;1.13;0.90;;;;;;;25.85;39.15;100990.97;5065313;28;20431;-75
2023/08/29 10:53:43;;;;;;;1.13;0.90;;;;;;;25.78;40.21;100991.31;5062752;28;20025;-74
2023/08/29 10:56:08;;;;;;;1.30;1.00;;;;;;;24.88;40.83;100985.47;5070122;28;20036;-74
2023/08/29 10:58:41;;;;;;;2.30;1.00;;;;;;;24.50;42.37;100978.63;5069926;28;20048;-74
2023/08/29 11:01:07;;;;;;;2.53;1.02;;;;;;;24.78;40.90;100975.38;5071571;28;20024;-74
2023/08/29 11:03:48;;;;;;;1.00;0.90;;;;;;;25.93;40.84;100972.94;5071328;28;20029;-74
2023/08/29 11:06:21;;;;;;;1.40;0.93;;;;;;;25.78;40.43;100980.28;5067773;28;20028;-74
2023/08/29 11:08:47;;;;;;;1.98;1.20;;;;;;;25.56;42.80;100978.09;5046318;28;20484;-74
2023/08/29 11:11:20;;;;;;;2.00;0.98;;;;;;;25.79;40.86;100981.94;5051774;28;20021;-74
2023/08/29 11:14:01;;;;;;;3.65;1.20;;;;;;;26.04;40.88;100983.50;5072185;28;20138;-74